Time;durP1;ratioP1;P1;durP2;ratioP2;P2;SDS_P1;SDS_P2;PMS_P1;PMS_P2;Temp;Humidity;BMP_temperature;BMP_pressure;BME280_temperature;BME280_humidity;BME280_pressure;Samples;Min_cycle;Max_cycle;Signal;HPM_P1;HPM_P2
2021/05/15 00:00:23;;;;;;;8.85;2.42;;;14.30;72.60;;;;;;5060744;28;20036;-63
2021/05/15 00:02:49;;;;;;;5.32;2.80;;;14.30;72.60;;;;;;5058679;28;20040;-61
2021/05/15 00:05:14;;;;;;;10.95;2.80;;;14.30;72.60;;;;;;5067434;28;20385;-62
2021/05/15 00:07:40;;;;;;;7.38;2.97;;;14.30;72.50;;;;;;5046448;28;20047;-63
2021/05/15 00:10:06;;;;;;;4.65;2.47;;;14.30;72.50;;;;;;5062229;28;20434;-63
2021/05/15 00:12:32;;;;;;;7.60;2.53;;;14.30;72.50;;;;;;5065898;28;20029;-63
2021/05/15 00:14:57;;;;;;;6.22;2.50;;;14.30;72.50;;;;;;5068169;28;20120;-63
2021/05/15 00:17:23;;;;;;;5.22;2.40;;;14.30;72.50;;;;;;5064276;28;20198;-64
2021/05/15 00:19:48;;;;;;;5.00;2.20;;;14.20;72.40;;;;;;5061325;28;20049;-61
2021/05/15 00:22:14;;;;;;;2.72;1.85;;;14.20;72.50;;;;;;5062888;28;20048;-61
2021/05/15 00:24:39;;;;;;;2.33;1.75;;;14.20;72.60;;;;;;5062311;28;20032;-63
2021/05/15 00:27:05;;;;;;;3.25;1.90;;;14.20;72.60;;;;;;5064945;28;20119;-62
2021/05/15 00:29:30;;;;;;;2.63;1.50;;;14.20;72.70;;;;;;5066242;28;20024;-63
2021/05/15 00:31:56;;;;;;;5.07;1.80;;;14.20;72.70;;;;;;5066134;28;20103;-63
2021/05/15 00:34:21;;;;;;;4.78;2.00;;;14.20;72.70;;;;;;5055920;28;20257;-62
2021/05/15 00:36:48;;;;;;;3.45;1.73;;;14.20;72.50;;;;;;5061619;28;20081;-61
2021/05/15 00:39:14;;;;;;;6.00;2.00;;;14.10;72.60;;;;;;5056707;28;20572;-61
2021/05/15 00:41:40;;;;;;;5.68;1.70;;;14.10;72.60;;;;;;5063676;28;20040;-62
2021/05/15 00:46:35;;;;;;;3.85;2.08;;;14.20;72.70;;;;;;5059980;28;20036;-64
2021/05/15 00:49:00;;;;;;;3.90;1.80;;;14.10;72.60;;;;;;5056221;28;20043;-62
2021/05/15 00:51:26;;;;;;;6.13;2.20;;;14.10;72.60;;;;;;5061999;28;20605;-63
2021/05/15 00:53:51;;;;;;;6.25;2.40;;;14.10;72.60;;;;;;5061424;28;20025;-64
2021/05/15 00:56:17;;;;;;;4.95;2.33;;;14.10;72.60;;;;;;5060680;28;20244;-63
2021/05/15 00:58:42;;;;;;;3.20;2.13;;;14.10;72.60;;;;;;5059539;28;20043;-64
2021/05/15 01:01:08;;;;;;;7.15;2.22;;;14.10;72.60;;;;;;5056549;28;20036;-64
2021/05/15 01:03:34;;;;;;;7.70;2.67;;;14.10;72.50;;;;;;5063908;28;20059;-62
2021/05/15 01:06:03;;;;;;;3.80;2.15;;;14.10;72.60;;;;;;5060693;28;20025;-64
2021/05/15 01:08:28;;;;;;;4.00;2.60;;;14.00;72.50;;;;;;5055457;28;20538;-64
2021/05/15 01:10:54;;;;;;;4.10;2.13;;;14.00;72.50;;;;;;5064044;28;20029;-62
2021/05/15 01:13:31;;;;;;;5.85;2.25;;;14.10;72.70;;;;;;5036480;28;20079;-64
2021/05/15 01:15:58;;;;;;;3.78;1.95;;;14.00;72.60;;;;;;5063680;28;20422;-63
2021/05/15 01:18:25;;;;;;;4.28;2.13;;;14.00;72.60;;;;;;5062193;28;20055;-64
2021/05/15 01:20:50;;;;;;;3.55;2.05;;;14.00;72.60;;;;;;5062726;28;20047;-62
2021/05/15 01:23:16;;;;;;;4.03;2.58;;;14.00;72.60;;;;;;5061273;28;20104;-63
2021/05/15 01:25:41;;;;;;;7.03;2.13;;;14.00;72.70;;;;;;5058719;28;20033;-62
2021/05/15 01:28:07;;;;;;;5.13;2.40;;;14.00;72.60;;;;;;5055023;28;20111;-63
2021/05/15 01:30:32;;;;;;;3.00;2.03;;;14.00;72.60;;;;;;5062581;28;20037;-64
2021/05/15 01:32:58;;;;;;;5.25;2.17;;;14.00;72.60;;;;;;5066123;28;20807;-62
2021/05/15 01:35:23;;;;;;;5.75;2.35;;;13.90;72.60;;;;;;5064875;28;20024;-64
2021/05/15 01:37:49;;;;;;;5.07;1.88;;;14.00;72.70;;;;;;5054025;28;20037;-65
2021/05/15 01:40:15;;;;;;;4.30;2.13;;;13.90;72.70;;;;;;5058006;28;20036;-65
2021/05/15 01:42:40;;;;;;;5.50;1.90;;;13.90;73.40;;;;;;5058494;28;20036;-64
2021/05/15 01:45:06;;;;;;;3.30;1.90;;;13.90;72.80;;;;;;5057801;28;20033;-64
2021/05/15 01:47:38;;;;;;;3.17;1.95;;;13.90;72.80;;;;;;5062673;28;20024;-63
2021/05/15 01:50:08;;;;;;;4.05;1.48;;;13.90;72.80;;;;;;5058310;28;20025;-63
2021/05/15 01:52:33;;;;;;;3.25;1.98;;;13.90;72.80;;;;;;5063833;28;20066;-62
2021/05/15 01:54:59;;;;;;;3.92;1.65;;;13.90;72.80;;;;;;5063153;28;20060;-63
2021/05/15 01:57:25;;;;;;;3.67;1.70;;;13.90;72.90;;;;;;5061374;28;20060;-63
2021/05/15 01:59:50;;;;;;;6.57;2.28;;;13.80;72.90;;;;;;5061337;28;20040;-62
2021/05/15 02:02:16;;;;;;;3.30;1.98;;;13.80;72.90;;;;;;5061066;28;20104;-62
2021/05/15 02:04:41;;;;;;;3.03;1.60;;;13.80;73.00;;;;;;5055864;28;20111;-64
2021/05/15 02:07:07;;;;;;;3.33;2.10;;;13.80;73.10;;;;;;5060934;28;20060;-64
2021/05/15 02:09:32;;;;;;;3.88;1.60;;;13.80;73.20;;;;;;5063616;28;20035;-63
2021/05/15 02:11:58;;;;;;;3.65;1.67;;;13.80;73.10;;;;;;5061698;28;20060;-62
2021/05/15 02:14:23;;;;;;;3.63;1.65;;;13.70;73.20;;;;;;5060701;28;20502;-64
2021/05/15 02:16:49;;;;;;;3.63;1.70;;;13.70;73.20;;;;;;5058203;28;20097;-64
2021/05/15 02:19:14;;;;;;;3.20;1.83;;;13.70;73.20;;;;;;5060131;28;20140;-64
2021/05/15 02:21:40;;;;;;;6.25;1.73;;;13.70;73.30;;;;;;5056006;28;20097;-62
2021/05/15 02:24:06;;;;;;;2.65;1.30;;;13.70;73.30;;;;;;5060376;28;20020;-62
2021/05/15 02:26:32;;;;;;;4.85;2.47;;;13.60;73.30;;;;;;5061774;28;20431;-61
2021/05/15 02:28:58;;;;;;;4.43;2.00;;;13.70;73.50;;;;;;5063644;28;20029;-63
2021/05/15 02:31:23;;;;;;;3.88;2.33;;;13.60;73.50;;;;;;5062194;28;20033;-62
2021/05/15 02:33:49;;;;;;;3.47;2.30;;;13.60;73.50;;;;;;5059836;28;20028;-62
2021/05/15 02:36:14;;;;;;;3.38;1.98;;;13.60;73.60;;;;;;5061254;28;20036;-62
2021/05/15 02:38:40;;;;;;;4.95;2.00;;;13.60;73.60;;;;;;5061565;28;20437;-62
2021/05/15 02:41:05;;;;;;;2.70;1.90;;;13.60;73.60;;;;;;5043817;28;20535;-65
2021/05/15 02:43:31;;;;;;;3.60;2.00;;;13.60;73.70;;;;;;5060786;28;20033;-62
2021/05/15 02:45:56;;;;;;;5.65;2.13;;;13.50;73.70;;;;;;5060263;28;20496;-63
2021/05/15 02:48:22;;;;;;;6.97;2.20;;;13.50;73.70;;;;;;5062025;28;20045;-64
2021/05/15 02:50:49;;;;;;;3.33;2.38;;;13.50;73.80;;;;;;5060201;28;20127;-65
2021/05/15 02:53:15;;;;;;;8.93;2.50;;;13.50;73.90;;;;;;5054650;28;20107;-64
2021/05/15 02:55:40;;;;;;;6.95;2.40;;;13.50;73.90;;;;;;5061991;28;20563;-62
2021/05/15 02:58:06;;;;;;;5.10;2.00;;;13.50;74.00;;;;;;5042820;28;20115;-63
2021/05/15 03:00:31;;;;;;;3.10;2.10;;;13.40;74.00;;;;;;5060751;28;20112;-63
2021/05/15 03:02:57;;;;;;;5.63;2.58;;;13.40;74.10;;;;;;5054065;28;20027;-62
2021/05/15 03:05:24;;;;;;;4.38;2.08;;;13.40;74.10;;;;;;5058186;28;20055;-64
2021/05/15 03:07:49;;;;;;;6.68;2.00;;;13.40;74.10;;;;;;5062170;28;20395;-63
2021/05/15 03:10:15;;;;;;;4.78;2.08;;;13.40;74.20;;;;;;5052810;28;20108;-62
2021/05/15 03:12:40;;;;;;;5.93;2.20;;;13.30;74.10;;;;;;5058655;28;20029;-62
2021/05/15 03:15:13;;;;;;;2.70;1.73;;;13.30;74.20;;;;;;5063603;28;20044;-61
2021/05/15 03:17:41;;;;;;;4.38;2.00;;;13.30;74.10;;;;;;5061364;28;20028;-62
2021/05/15 03:20:08;;;;;;;4.78;2.25;;;13.30;74.20;;;;;;5050390;28;20132;-62
2021/05/15 03:22:34;;;;;;;3.75;1.88;;;13.30;74.30;;;;;;5047360;28;20044;-63
2021/05/15 03:25:00;;;;;;;4.70;1.80;;;13.30;74.40;;;;;;5042512;28;20052;-63
2021/05/15 03:27:25;;;;;;;3.72;2.05;;;13.20;74.50;;;;;;5056493;28;20036;-63
2021/05/15 03:29:51;;;;;;;6.65;2.13;;;13.10;74.40;;;;;;5064095;28;20033;-64
2021/05/15 03:32:16;;;;;;;3.72;2.08;;;12.90;74.30;;;;;;5062667;28;20473;-63
2021/05/15 03:34:42;;;;;;;6.35;2.10;;;13.20;74.60;;;;;;5054270;28;20029;-63
2021/05/15 03:37:07;;;;;;;5.03;2.13;;;13.20;74.70;;;;;;5058623;28;20681;-64
2021/05/15 03:39:33;;;;;;;80.60;9.48;;;13.10;74.60;;;;;;5063174;28;20051;-64
2021/05/15 03:41:58;;;;;;;44.30;5.25;;;13.10;74.60;;;;;;5062474;28;20485;-64
2021/05/15 03:44:24;;;;;;;24.33;4.18;;;13.10;74.60;;;;;;5056887;28;20029;-62
2021/05/15 03:46:49;;;;;;;26.10;3.90;;;13.10;74.80;;;;;;5058624;28;20531;-61
2021/05/15 03:49:15;;;;;;;46.00;5.25;;;13.10;74.80;;;;;;5051413;28;20041;-64
2021/05/15 03:51:41;;;;;;;33.03;5.72;;;13.10;74.90;;;;;;5043862;28;20078;-62
2021/05/15 03:54:07;;;;;;;37.55;4.75;;;13.10;74.90;;;;;;5061776;28;20037;-65
2021/05/15 03:56:32;;;;;;;34.13;5.43;;;13.10;75.00;;;;;;5059141;28;20488;-62
2021/05/15 03:58:58;;;;;;;32.38;5.13;;;13.10;75.10;;;;;;5052322;28;20452;-64
2021/05/15 04:01:23;;;;;;;29.92;4.97;;;13.00;75.00;;;;;;5056596;28;20033;-63
2021/05/15 04:03:49;;;;;;;37.75;5.80;;;13.00;75.80;;;;;;5058971;28;20031;-63
2021/05/15 04:06:15;;;;;;;43.83;6.63;;;13.00;75.30;;;;;;5059135;28;20025;-62
2021/05/15 04:08:40;;;;;;;55.20;7.32;;;13.00;75.50;;;;;;5062149;28;20068;-62
2021/05/15 04:11:06;;;;;;;43.90;6.15;;;13.00;75.50;;;;;;5057808;28;20021;-64
2021/05/15 04:13:55;;;;;;;46.17;6.57;;;13.00;76.20;;;;;;5040219;28;20036;-62
2021/05/15 04:16:33;;;;;;;54.97;6.72;;;13.00;75.50;;;;;;5064261;28;20029;-64
2021/05/15 04:18:59;;;;;;;43.15;5.43;;;12.90;75.60;;;;;;5053135;28;20033;-63
2021/05/15 04:21:24;;;;;;;42.70;6.15;;;12.90;75.60;;;;;;5053858;28;20031;-64
2021/05/15 04:23:50;;;;;;;51.40;6.70;;;12.90;75.70;;;;;;5061107;28;20039;-63
2021/05/15 04:26:15;;;;;;;58.33;6.63;;;12.90;75.70;;;;;;5042377;28;20044;-64
2021/05/15 04:28:41;;;;;;;60.17;7.15;;;12.90;75.80;;;;;;5039175;28;20037;-63
2021/05/15 04:31:06;;;;;;;86.18;8.95;;;12.90;75.80;;;;;;5055352;28;20076;-63
2021/05/15 04:33:32;;;;;;;187.45;16.00;;;12.90;75.90;;;;;;5056905;28;20116;-63
2021/05/15 04:35:57;;;;;;;175.45;13.48;;;12.90;75.90;;;;;;5057852;28;20255;-63
2021/05/15 04:38:23;;;;;;;426.05;32.20;;;12.90;76.00;;;;;;5049926;28;20509;-63
2021/05/15 04:40:49;;;;;;;269.13;21.67;;;12.80;76.00;;;;;;5051241;28;20063;-62
2021/05/15 04:43:14;;;;;;;481.48;38.70;;;12.80;76.00;;;;;;5057499;28;20036;-62
2021/05/15 04:45:43;;;;;;;231.77;17.63;;;12.80;76.10;;;;;;5055915;28;20039;-62
2021/05/15 04:48:09;;;;;;;259.23;19.52;;;12.90;76.20;;;;;;5056462;28;20170;-63
2021/05/15 04:50:35;;;;;;;220.82;19.08;;;12.90;76.00;;;;;;5058812;28;20559;-62
2021/05/15 04:53:00;;;;;;;221.35;17.10;;;12.80;75.80;;;;;;5057098;28;20115;-61
2021/05/15 04:55:26;;;;;;;223.98;17.73;;;12.90;75.90;;;;;;5036333;28;20080;-63
2021/05/15 04:57:51;;;;;;;171.90;16.25;;;12.80;75.90;;;;;;5062304;28;20544;-64
2021/05/15 05:00:17;;;;;;;180.90;17.42;;;12.80;75.90;;;;;;5069829;28;20059;-62
2021/05/15 05:02:43;;;;;;;205.57;17.95;;;12.80;75.90;;;;;;5059994;28;20033;-62
2021/05/15 05:05:09;;;;;;;177.75;16.20;;;12.80;76.10;;;;;;5065240;28;20025;-63
2021/05/15 05:07:34;;;;;;;205.13;16.35;;;12.80;76.30;;;;;;5062270;28;20032;-64
2021/05/15 05:10:00;;;;;;;191.25;17.42;;;12.80;76.50;;;;;;5050028;28;20025;-63
2021/05/15 05:12:25;;;;;;;160.80;17.27;;;12.80;76.50;;;;;;5054975;28;20025;-62
2021/05/15 05:14:51;;;;;;;172.88;13.80;;;12.80;76.40;;;;;;5058120;28;20033;-62
2021/05/15 05:17:16;;;;;;;177.77;14.13;;;12.80;76.60;;;;;;5061358;28;20628;-63
2021/05/15 05:19:42;;;;;;;136.35;14.55;;;12.70;76.90;;;;;;5055102;28;20107;-62
2021/05/15 05:22:07;;;;;;;137.90;14.40;;;12.70;77.00;;;;;;5062099;28;20694;-62
2021/05/15 05:24:33;;;;;;;145.65;13.23;;;12.70;76.90;;;;;;5060679;28;20043;-63
2021/05/15 05:27:00;;;;;;;140.43;13.20;;;12.70;76.80;;;;;;5064431;28;20048;-62
2021/05/15 05:29:26;;;;;;;132.93;12.75;;;12.70;76.90;;;;;;5061650;28;20043;-64
2021/05/15 05:31:52;;;;;;;126.05;13.15;;;12.70;76.90;;;;;;5058850;28;20043;-62
2021/05/15 05:34:17;;;;;;;121.70;11.88;;;12.80;77.00;;;;;;5056772;28;20476;-61
2021/05/15 05:36:43;;;;;;;145.43;13.35;;;12.70;77.00;;;;;;5065686;28;20464;-63
2021/05/15 05:39:10;;;;;;;127.97;12.75;;;12.70;76.90;;;;;;5064365;28;20492;-62
2021/05/15 05:41:36;;;;;;;125.18;12.35;;;12.70;76.90;;;;;;5050979;28;20116;-61
2021/05/15 05:44:01;;;;;;;106.35;10.63;;;12.80;77.00;;;;;;5056760;28;20035;-63
2021/05/15 05:46:27;;;;;;;100.70;11.02;;;12.70;76.90;;;;;;5057795;28;20032;-63
2021/05/15 05:48:52;;;;;;;103.10;10.57;;;12.80;76.90;;;;;;5057825;28;20037;-64
2021/05/15 05:51:18;;;;;;;116.70;13.07;;;12.80;76.80;;;;;;5061226;28;20033;-61
2021/05/15 05:53:44;;;;;;;107.07;10.82;;;12.70;76.70;;;;;;5063344;28;20472;-63
2021/05/15 05:56:09;;;;;;;91.65;9.75;;;12.70;76.70;;;;;;5059302;28;20419;-64
2021/05/15 05:58:35;;;;;;;115.70;11.80;;;12.80;76.70;;;;;;5063483;28;20032;-61
2021/05/15 06:01:00;;;;;;;90.18;10.18;;;12.70;76.50;;;;;;5059492;28;20038;-64
2021/05/15 06:03:26;;;;;;;82.53;9.32;;;12.80;76.50;;;;;;5059239;28;20090;-62
2021/05/15 06:05:52;;;;;;;97.22;10.82;;;12.80;76.50;;;;;;5061714;28;20028;-62
2021/05/15 06:08:18;;;;;;;95.22;8.43;;;12.80;76.30;;;;;;5061866;28;20033;-62
2021/05/15 06:10:43;;;;;;;76.10;9.20;;;12.80;76.30;;;;;;5058837;28;20512;-63
2021/05/15 06:13:09;;;;;;;67.30;7.72;;;12.80;76.50;;;;;;5044044;28;20221;-64
2021/05/15 06:15:35;;;;;;;80.30;8.38;;;12.90;77.30;;;;;;5056583;28;20055;-64
2021/05/15 06:18:01;;;;;;;61.13;7.85;;;12.90;76.60;;;;;;5061153;28;20384;-62
2021/05/15 06:20:27;;;;;;;88.22;9.82;;;12.90;76.80;;;;;;5060867;28;20055;-61
2021/05/15 06:22:52;;;;;;;59.42;7.85;;;12.90;76.80;;;;;;5057777;28;20102;-64
2021/05/15 06:25:17;;;;;;;54.30;6.60;;;12.90;76.80;;;;;;5063662;28;20032;-64
2021/05/15 06:27:43;;;;;;;64.80;7.70;;;12.90;76.80;;;;;;5052221;28;20037;-65
2021/05/15 06:30:09;;;;;;;56.33;7.15;;;12.90;76.70;;;;;;5060706;28;20028;-63
2021/05/15 06:32:34;;;;;;;54.83;6.65;;;12.90;76.90;;;;;;5045053;28;20032;-62
2021/05/15 06:35:00;;;;;;;49.13;6.05;;;13.00;76.80;;;;;;5058148;28;20040;-63
2021/05/15 06:37:25;;;;;;;50.70;6.38;;;12.90;76.70;;;;;;5058979;28;20472;-64
2021/05/15 06:39:51;;;;;;;55.60;6.45;;;12.90;76.60;;;;;;5058971;28;20041;-63
2021/05/15 06:42:16;;;;;;;43.78;7.40;;;12.90;76.60;;;;;;5059233;28;20051;-64
2021/05/15 06:44:42;;;;;;;36.47;5.57;;;13.00;76.90;;;;;;5059519;28;20023;-64
2021/05/15 06:47:07;;;;;;;41.13;6.13;;;13.00;76.70;;;;;;5062943;28;20086;-63
2021/05/15 06:49:33;;;;;;;61.15;7.20;;;13.00;76.80;;;;;;5059264;28;20120;-65
2021/05/15 06:51:58;;;;;;;45.30;5.60;;;13.00;76.90;;;;;;5053684;28;20029;-64
2021/05/15 06:54:24;;;;;;;37.80;5.32;;;13.00;76.90;;;;;;5058980;28;20040;-62
2021/05/15 06:56:53;;;;;;;38.83;5.63;;;13.00;76.80;;;;;;5061125;28;20432;-64
2021/05/15 06:59:18;;;;;;;42.13;5.50;;;13.00;76.70;;;;;;5061111;28;20094;-63
2021/05/15 07:01:44;;;;;;;45.60;5.72;;;13.00;76.70;;;;;;5059456;28;20128;-64
2021/05/15 07:04:10;;;;;;;42.85;6.03;;;13.00;76.60;;;;;;5059325;28;20024;-61
2021/05/15 07:06:35;;;;;;;36.50;4.70;;;13.00;76.60;;;;;;5052532;28;20017;-62
2021/05/15 07:09:01;;;;;;;37.53;5.05;;;13.10;76.60;;;;;;5057000;28;20500;-63
2021/05/15 07:11:27;;;;;;;40.85;5.70;;;13.10;76.50;;;;;;5055432;28;20028;-64
2021/05/15 07:13:52;;;;;;;34.22;5.15;;;13.10;76.50;;;;;;5057378;28;20043;-63
2021/05/15 07:16:18;;;;;;;38.35;4.85;;;13.10;76.40;;;;;;5053537;28;20063;-63
2021/05/15 07:18:43;;;;;;;32.05;4.90;;;13.10;76.30;;;;;;5055998;28;20036;-63
2021/05/15 07:21:09;;;;;;;36.40;6.03;;;13.10;76.20;;;;;;5059204;28;20140;-62
2021/05/15 07:23:34;;;;;;;43.15;5.10;;;13.20;76.20;;;;;;5060403;28;20046;-62
2021/05/15 07:26:00;;;;;;;47.28;6.25;;;13.20;76.10;;;;;;5056399;28;20066;-63
2021/05/15 07:28:25;;;;;;;31.58;4.30;;;12.90;75.90;;;;;;5052061;28;20033;-62
2021/05/15 07:30:51;;;;;;;30.02;4.28;;;13.20;76.00;;;;;;5052199;28;20684;-64
2021/05/15 07:33:17;;;;;;;44.88;5.28;;;13.20;75.80;;;;;;5051173;28;20430;-63
2021/05/15 07:35:43;;;;;;;33.53;4.65;;;13.20;75.70;;;;;;5051830;28;20039;-63
2021/05/15 07:38:08;;;;;;;32.00;4.55;;;13.30;75.60;;;;;;5050292;28;20579;-64
2021/05/15 07:40:34;;;;;;;28.95;3.72;;;13.30;75.50;;;;;;5053602;28;20174;-64
2021/05/15 07:42:59;;;;;;;23.30;3.90;;;13.30;75.50;;;;;;5034548;28;20032;-63
2021/05/15 07:45:25;;;;;;;33.08;3.95;;;13.30;75.40;;;;;;5052005;28;20098;-64
2021/05/15 07:47:50;;;;;;;26.73;4.45;;;13.30;75.20;;;;;;5060998;28;20067;-63
2021/05/15 07:50:16;;;;;;;30.73;3.95;;;13.30;75.10;;;;;;5058975;28;20442;-62
2021/05/15 07:52:41;;;;;;;18.63;2.90;;;13.40;75.00;;;;;;5056554;28;20063;-62
2021/05/15 07:55:08;;;;;;;26.13;4.13;;;13.40;75.00;;;;;;5059071;28;20099;-63
2021/05/15 07:57:34;;;;;;;26.52;3.53;;;13.40;74.80;;;;;;5043265;28;20048;-63
2021/05/15 07:59:59;;;;;;;17.95;2.90;;;13.50;74.70;;;;;;5053605;28;20024;-62
2021/05/15 08:02:27;;;;;;;15.55;3.17;;;13.50;74.50;;;;;;5056040;28;20024;-64
2021/05/15 08:04:54;;;;;;;22.60;2.67;;;13.60;74.40;;;;;;5056574;28;20029;-64
2021/05/15 08:07:20;;;;;;;29.30;3.25;;;13.60;74.20;;;;;;5046459;28;20033;-62
2021/05/15 08:09:45;;;;;;;12.77;2.90;;;13.60;74.10;;;;;;5057801;28;20028;-62
2021/05/15 08:12:11;;;;;;;12.88;2.60;;;13.60;74.10;;;;;;5057792;28;20041;-62
2021/05/15 08:14:36;;;;;;;12.95;2.38;;;13.70;74.00;;;;;;5059140;28;20062;-62
2021/05/15 08:17:02;;;;;;;17.17;2.60;;;13.70;73.90;;;;;;5056900;28;20102;-64
2021/05/15 08:19:27;;;;;;;28.90;3.25;;;13.70;74.00;;;;;;5053029;28;20120;-63
2021/05/15 08:21:53;;;;;;;24.02;3.88;;;13.70;74.00;;;;;;5054097;28;20072;-63
2021/05/15 08:24:20;;;;;;;33.53;4.20;;;13.80;74.00;;;;;;5063219;28;20032;-64
2021/05/15 08:26:45;;;;;;;27.40;4.25;;;13.80;74.00;;;;;;5062201;28;20028;-62
2021/05/15 08:29:13;;;;;;;29.77;3.75;;;13.90;74.00;;;;;;5064818;28;20560;-62
2021/05/15 08:31:39;;;;;;;39.92;4.55;;;13.90;74.00;;;;;;5057915;28;20021;-62
2021/05/15 08:34:04;;;;;;;35.30;4.50;;;14.00;74.00;;;;;;5060214;28;20028;-64
2021/05/15 08:36:30;;;;;;;40.72;4.35;;;13.80;73.70;;;;;;5055282;28;20037;-62
2021/05/15 08:38:57;;;;;;;33.45;3.35;;;14.00;73.70;;;;;;5055866;28;20465;-64
2021/05/15 08:41:22;;;;;;;50.83;4.95;;;14.10;73.70;;;;;;5060857;28;20116;-63
2021/05/15 08:43:48;;;;;;;49.28;4.53;;;14.10;73.80;;;;;;5060360;28;20434;-63
2021/05/15 08:46:13;;;;;;;26.05;4.55;;;14.20;73.60;;;;;;5058326;28;20025;-63
2021/05/15 08:48:39;;;;;;;37.90;4.57;;;14.20;73.60;;;;;;5047419;28;20040;-61
2021/05/15 08:51:05;;;;;;;47.22;5.32;;;14.20;73.60;;;;;;5064001;28;20385;-62
2021/05/15 08:53:30;;;;;;;61.28;7.00;;;14.30;73.60;;;;;;5061517;28;20032;-62
2021/05/15 08:55:56;;;;;;;70.28;7.60;;;14.30;73.70;;;;;;5060759;28;20117;-63
2021/05/15 08:58:21;;;;;;;71.15;8.02;;;14.30;73.90;;;;;;5059157;28;20032;-63
2021/05/15 09:00:47;;;;;;;54.28;5.93;;;14.30;74.10;;;;;;5060456;28;20518;-63
2021/05/15 09:03:13;;;;;;;43.30;6.00;;;14.40;74.10;;;;;;5046169;28;20099;-62
2021/05/15 09:05:43;;;;;;;53.60;5.13;;;14.40;73.70;;;;;;5058121;28;20476;-63
2021/05/15 09:08:10;;;;;;;48.33;6.60;;;14.50;73.40;;;;;;5062479;28;20040;-63
2021/05/15 09:10:40;;;;;;;71.85;7.53;;;14.50;73.30;;;;;;5041405;28;20066;-63
2021/05/15 09:13:19;;;;;;;70.03;7.75;;;14.60;73.20;;;;;;5041335;28;20159;-62
2021/05/15 09:16:11;;;;;;;141.63;13.65;;;14.60;73.10;;;;;;5049496;28;20048;-62
2021/05/15 09:18:39;;;;;;;124.50;12.52;;;14.70;73.00;;;;;;5059897;28;20048;-62
2021/05/15 09:21:07;;;;;;;92.88;10.20;;;14.80;73.80;;;;;;5064385;28;20043;-64
2021/05/15 09:23:34;;;;;;;98.20;10.18;;;14.80;72.90;;;;;;5058155;28;20040;-64
2021/05/15 09:26:10;;;;;;;100.80;11.27;;;14.90;72.70;;;;;;5051558;28;20040;-63
2021/05/15 09:28:56;;;;;;;94.07;10.30;;;14.90;72.50;;;;;;5049705;28;20389;-64
2021/05/15 09:31:24;;;;;;;103.97;11.00;;;15.00;72.50;;;;;;5054316;28;20039;-62
2021/05/15 09:34:10;;;;;;;119.47;11.88;;;15.10;72.10;;;;;;5060674;28;20471;-61
2021/05/15 09:36:39;;;;;;;92.85;10.10;;;15.10;72.00;;;;;;5059574;28;20048;-63
2021/05/15 09:39:12;;;;;;;100.70;10.70;;;15.20;71.90;;;;;;5054930;28;20024;-63
2021/05/15 09:41:59;;;;;;;137.45;12.77;;;15.20;71.70;;;;;;5060155;28;20143;-63
2021/05/15 09:44:35;;;;;;;115.25;11.85;;;15.30;71.10;;;;;;5059840;28;20029;-62
2021/05/15 09:47:01;;;;;;;92.30;11.25;;;15.30;71.20;;;;;;5058938;28;20031;-63
2021/05/15 09:49:28;;;;;;;91.50;10.35;;;15.40;71.30;;;;;;5060627;28;20037;-62
2021/05/15 09:51:55;;;;;;;118.20;11.95;;;15.40;71.10;;;;;;5054988;28;20043;-63
2021/05/15 09:54:22;;;;;;;117.22;12.77;;;15.50;71.00;;;;;;5052351;28;20203;-63
2021/05/15 09:57:04;;;;;;;99.28;9.98;;;15.60;70.50;;;;;;5056660;28;20561;-62
2021/05/15 09:59:43;;;;;;;95.13;10.63;;;15.60;70.50;;;;;;5049522;28;20043;-64
2021/05/15 10:02:13;;;;;;;93.75;10.82;;;15.70;70.50;;;;;;5060977;28;20385;-63
2021/05/15 10:04:40;;;;;;;93.95;9.00;;;15.70;70.00;;;;;;5058393;28;20040;-62
2021/05/15 10:07:17;;;;;;;106.38;10.32;;;15.70;69.40;;;;;;5053377;28;20033;-62
2021/05/15 10:09:42;;;;;;;124.22;14.20;;;15.80;69.50;;;;;;5057939;28;20540;-63
2021/05/15 10:12:08;;;;;;;84.38;9.10;;;15.90;69.50;;;;;;5043873;28;20068;-63
2021/05/15 10:14:33;;;;;;;80.60;9.65;;;15.90;69.00;;;;;;5056266;28;20032;-61
2021/05/15 10:16:59;;;;;;;94.32;9.57;;;15.90;68.90;;;;;;5062765;28;20032;-62
2021/05/15 10:19:25;;;;;;;115.95;10.57;;;16.00;68.90;;;;;;5056112;28;20492;-63
2021/05/15 10:21:51;;;;;;;95.47;9.07;;;16.00;68.60;;;;;;5049039;28;20063;-62
2021/05/15 10:24:19;;;;;;;81.65;10.73;;;16.00;68.10;;;;;;5050738;28;20598;-63
2021/05/15 10:27:01;;;;;;;97.75;11.65;;;16.10;67.70;;;;;;5063855;28;20456;-62
2021/05/15 10:29:53;;;;;;;70.97;8.50;;;16.10;67.50;;;;;;5053589;28;20025;-62
2021/05/15 10:32:21;;;;;;;80.35;10.95;;;16.20;67.40;;;;;;5059227;28;20098;-62
2021/05/15 10:34:48;;;;;;;78.95;7.47;;;16.30;66.90;;;;;;5055586;28;20051;-64
2021/05/15 10:37:17;;;;;;;88.43;8.50;;;16.30;66.80;;;;;;5054561;28;20437;-61
2021/05/15 10:39:43;;;;;;;80.13;9.20;;;16.30;66.60;;;;;;5056952;28;20036;-62
2021/05/15 10:42:08;;;;;;;79.47;8.57;;;16.40;66.60;;;;;;5057039;28;20033;-61
2021/05/15 10:44:41;;;;;;;69.95;8.68;;;16.40;66.60;;;;;;5042142;28;20043;-62
2021/05/15 10:47:07;;;;;;;57.88;7.47;;;16.50;66.40;;;;;;5058319;28;20029;-61
2021/05/15 10:49:32;;;;;;;60.78;7.43;;;16.50;66.20;;;;;;5059205;28;20025;-62
2021/05/15 10:52:09;;;;;;;68.50;8.77;;;16.50;66.50;;;;;;5042927;28;20089;-63
2021/05/15 10:54:36;;;;;;;64.18;8.35;;;16.60;66.10;;;;;;5060081;28;20036;-62
2021/05/15 10:57:02;;;;;;;71.53;7.85;;;16.60;65.60;;;;;;5062349;28;20082;-60
2021/05/15 10:59:27;;;;;;;70.65;8.85;;;16.60;65.40;;;;;;5058856;28;20384;-61
2021/05/15 11:01:57;;;;;;;77.25;8.90;;;16.70;65.00;;;;;;5037971;28;20408;-63
2021/05/15 11:04:28;;;;;;;54.67;7.03;;;16.70;65.10;;;;;;5056734;28;20086;-62
2021/05/15 11:07:10;;;;;;;62.13;6.45;;;16.70;64.80;;;;;;5058431;28;20024;-62
2021/05/15 11:09:50;;;;;;;63.53;7.20;;;16.80;64.70;;;;;;5058574;28;20024;-63
2021/05/15 11:12:16;;;;;;;80.35;7.80;;;16.80;64.90;;;;;;5043349;28;20025;-62
2021/05/15 11:14:43;;;;;;;70.65;7.80;;;16.80;65.00;;;;;;5039264;28;20083;-60
2021/05/15 11:17:10;;;;;;;59.03;6.68;;;16.80;65.10;;;;;;5058286;28;20039;-62
2021/05/15 11:19:35;;;;;;;101.38;9.52;;;16.90;65.00;;;;;;5062073;28;20037;-63
2021/05/15 11:22:01;;;;;;;81.35;7.13;;;17.00;65.40;;;;;;5039220;28;20045;-62
2021/05/15 11:24:32;;;;;;;66.93;8.38;;;17.00;64.80;;;;;;5059845;28;20487;-62
2021/05/15 11:27:07;;;;;;;75.05;6.57;;;17.10;64.80;;;;;;5051293;28;20039;-61
2021/05/15 11:29:33;;;;;;;78.10;7.93;;;17.20;64.60;;;;;;5069342;28;20479;-62
2021/05/15 11:32:25;;;;;;;82.47;9.15;;;17.30;64.30;;;;;;5037474;28;20040;-62
2021/05/15 11:34:51;;;;;;;87.65;8.18;;;17.30;64.20;;;;;;5050194;28;20090;-62
2021/05/15 11:37:16;;;;;;;50.97;7.22;;;17.40;64.20;;;;;;5060580;28;20908;-61
2021/05/15 11:39:42;;;;;;;92.80;10.32;;;17.40;64.20;;;;;;5057980;28;20048;-61
2021/05/15 11:42:11;;;;;;;81.03;9.63;;;17.50;64.10;;;;;;5056669;28;20089;-62
2021/05/15 11:44:40;;;;;;;73.60;8.57;;;17.60;63.80;;;;;;5056242;28;20500;-62
2021/05/15 11:47:08;;;;;;;91.10;9.02;;;17.60;63.80;;;;;;5041977;28;20048;-64
2021/05/15 11:49:34;;;;;;;85.82;8.90;;;17.60;63.70;;;;;;5053741;28;20084;-61
2021/05/15 11:52:02;;;;;;;85.57;8.02;;;17.60;63.70;;;;;;5057011;28;20025;-62
2021/05/15 11:54:28;;;;;;;79.28;8.55;;;17.70;63.80;;;;;;5058995;28;20103;-62
2021/05/15 11:56:56;;;;;;;68.22;7.18;;;17.70;64.30;;;;;;5060050;28;20115;-61
2021/05/15 11:59:22;;;;;;;86.13;8.23;;;17.80;64.20;;;;;;5058698;28;20017;-62
2021/05/15 12:01:48;;;;;;;81.93;8.43;;;17.80;64.60;;;;;;5060653;28;20127;-63
2021/05/15 12:04:18;;;;;;;90.63;9.30;;;17.80;64.40;;;;;;5058423;28;20032;-61
2021/05/15 12:06:44;;;;;;;73.30;8.32;;;17.80;64.50;;;;;;5058589;28;20043;-62
2021/05/15 12:09:16;;;;;;;79.13;7.40;;;17.80;64.20;;;;;;5041792;28;20037;-62
2021/05/15 12:11:43;;;;;;;106.93;9.93;;;17.90;64.50;;;;;;5054559;28;20764;-61
2021/05/15 12:14:08;;;;;;;82.78;9.82;;;17.90;65.00;;;;;;5058188;28;20036;-62
2021/05/15 12:16:34;;;;;;;131.13;10.93;;;17.90;65.20;;;;;;5058069;28;20530;-62
2021/05/15 12:19:00;;;;;;;95.82;8.20;;;17.90;65.00;;;;;;5056140;28;20051;-61
2021/05/15 12:21:26;;;;;;;80.85;9.32;;;17.90;65.00;;;;;;5061969;28;20548;-61
2021/05/15 12:23:52;;;;;;;77.63;9.65;;;17.90;65.10;;;;;;5062512;28;20039;-61
2021/05/15 12:26:17;;;;;;;70.53;8.20;;;18.00;64.90;;;;;;5063424;28;20042;-61
2021/05/15 12:28:47;;;;;;;103.05;10.70;;;18.00;65.00;;;;;;5059551;28;20020;-62
2021/05/15 12:31:26;;;;;;;67.07;8.55;;;18.00;64.60;;;;;;5061312;28;20031;-62
2021/05/15 12:33:52;;;;;;;159.40;16.27;;;18.10;64.60;;;;;;5062560;28;20051;-63
2021/05/15 12:36:18;;;;;;;114.97;12.05;;;18.10;64.40;;;;;;5070843;28;20028;-62